sensor_id;sensor_type;location;lat;lon;timestamp;temperature;humidity
2202;DHT22;1107;48.654;9.250;2022-08-03T00:02:17;20.50;99.90
2202;DHT22;1107;48.654;9.250;2022-08-03T00:04:44;20.40;99.90
2202;DHT22;1107;48.654;9.250;2022-08-03T00:07:12;20.40;1.00
2202;DHT22;1107;48.654;9.250;2022-08-03T00:09:39;20.30;1.00
2202;DHT22;1107;48.654;9.250;2022-08-03T00:12:06;20.20;1.00
2202;DHT22;1107;48.654;9.250;2022-08-03T00:14:33;20.30;99.90
2202;DHT22;1107;48.654;9.250;2022-08-03T00:17:02;20.20;1.00
2202;DHT22;1107;48.654;9.250;2022-08-03T00:19:29;20.20;1.00
2202;DHT22;1107;48.654;9.250;2022-08-03T00:21:56;20.20;1.00
2202;DHT22;1107;48.654;9.250;2022-08-03T00:24:22;20.20;99.90
2202;DHT22;1107;48.654;9.250;2022-08-03T00:26:49;20.20;1.00
2202;DHT22;1107;48.654;9.250;2022-08-03T00:29:16;20.20;99.90
2202;DHT22;1107;48.654;9.250;2022-08-03T00:31:43;20.20;99.90
2202;DHT22;1107;48.654;9.250;2022-08-03T00:34:12;20.20;1.00
2202;DHT22;1107;48.654;9.250;2022-08-03T00:36:39;20.20;99.90
2202;DHT22;1107;48.654;9.250;2022-08-03T00:39:06;20.20;1.00
2202;DHT22;1107;48.654;9.250;2022-08-03T00:41:33;20.20;1.00
2202;DHT22;1107;48.654;9.250;2022-08-03T00:44:00;20.20;1.00
2202;DHT22;1107;48.654;9.250;2022-08-03T00:46:27;20.20;1.00
2202;DHT22;1107;48.654;9.250;2022-08-03T00:48:54;20.20;1.00
2202;DHT22;1107;48.654;9.250;2022-08-03T00:51:23;20.20;1.00
2202;DHT22;1107;48.654;9.250;2022-08-03T00:53:50;20.20;99.90
2202;DHT22;1107;48.654;9.250;2022-08-03T00:56:17;20.20;21.30
2202;DHT22;1107;48.654;9.250;2022-08-03T00:58:45;20.20;1.00
2202;DHT22;1107;48.654;9.250;2022-08-03T01:01:13;20.10;91.60
2202;DHT22;1107;48.654;9.250;2022-08-03T01:03:40;20.10;1.00
2202;DHT22;1107;48.654;9.250;2022-08-03T01:06:15;20.20;99.90
2202;DHT22;1107;48.654;9.250;2022-08-03T01:08:47;20.10;1.00
2202;DHT22;1107;48.654;9.250;2022-08-03T01:11:25;20.00;1.00
2202;DHT22;1107;48.654;9.250;2022-08-03T01:14:00;19.90;99.90
2202;DHT22;1107;48.654;9.250;2022-08-03T01:16:32;19.90;99.90
2202;DHT22;1107;48.654;9.250;2022-08-03T01:19:12;19.80;99.90
2202;DHT22;1107;48.654;9.250;2022-08-03T01:21:51;19.90;1.00
2202;DHT22;1107;48.654;9.250;2022-08-03T01:24:30;19.90;99.90
2202;DHT22;1107;48.654;9.250;2022-08-03T01:27:04;19.90;99.90
2202;DHT22;1107;48.654;9.250;2022-08-03T01:29:49;19.90;1.00
2202;DHT22;1107;48.654;9.250;2022-08-03T01:32:20;19.80;33.50
2202;DHT22;1107;48.654;9.250;2022-08-03T01:34:51;19.90;1.00
2202;DHT22;1107;48.654;9.250;2022-08-03T01:37:23;19.90;99.90
2202;DHT22;1107;48.654;9.250;2022-08-03T01:39:53;19.90;99.90
2202;DHT22;1107;48.654;9.250;2022-08-03T01:42:23;19.80;1.00
2202;DHT22;1107;48.654;9.250;2022-08-03T01:44:52;19.90;1.00
2202;DHT22;1107;48.654;9.250;2022-08-03T01:47:21;19.90;1.00
2202;DHT22;1107;48.654;9.250;2022-08-03T01:49:50;19.90;1.00
2202;DHT22;1107;48.654;9.250;2022-08-03T01:52:18;19.80;99.90
2202;DHT22;1107;48.654;9.250;2022-08-03T01:54:48;19.80;99.90
2202;DHT22;1107;48.654;9.250;2022-08-03T01:57:17;19.70;23.00
2202;DHT22;1107;48.654;9.250;2022-08-03T01:59:46;19.70;1.00
2202;DHT22;1107;48.654;9.250;2022-08-03T02:02:17;19.70;1.00
2202;DHT22;1107;48.654;9.250;2022-08-03T02:04:46;19.70;1.00
2202;DHT22;1107;48.654;9.250;2022-08-03T02:07:14;19.60;1.00
2202;DHT22;1107;48.654;9.250;2022-08-03T02:09:44;19.50;99.90
2202;DHT22;1107;48.654;9.250;2022-08-03T02:12:13;19.40;43.20
2202;DHT22;1107;48.654;9.250;2022-08-03T02:14:42;19.40;1.00
2202;DHT22;1107;48.654;9.250;2022-08-03T02:17:11;19.40;99.90
2202;DHT22;1107;48.654;9.250;2022-08-03T02:19:41;19.30;99.90
2202;DHT22;1107;48.654;9.250;2022-08-03T02:22:10;19.30;99.90
2202;DHT22;1107;48.654;9.250;2022-08-03T02:24:38;19.30;1.00
2202;DHT22;1107;48.654;9.250;2022-08-03T02:27:12;19.40;1.00
2202;DHT22;1107;48.654;9.250;2022-08-03T02:29:41;19.40;1.00
2202;DHT22;1107;48.654;9.250;2022-08-03T02:32:13;19.40;1.00
2202;DHT22;1107;48.654;9.250;2022-08-03T02:34:46;19.30;1.00
2202;DHT22;1107;48.654;9.250;2022-08-03T02:37:17;19.30;1.00
2202;DHT22;1107;48.654;9.250;2022-08-03T02:39:46;19.10;1.00
2202;DHT22;1107;48.654;9.250;2022-08-03T02:42:20;19.10;99.90
2202;DHT22;1107;48.654;9.250;2022-08-03T02:44:50;19.10;1.00
2202;DHT22;1107;48.654;9.250;2022-08-03T02:47:19;19.00;1.00
2202;DHT22;1107;48.654;9.250;2022-08-03T02:49:49;18.90;1.00
2202;DHT22;1107;48.654;9.250;2022-08-03T02:52:17;18.90;1.00
2202;DHT22;1107;48.654;9.250;2022-08-03T02:54:48;18.90;99.90
2202;DHT22;1107;48.654;9.250;2022-08-03T02:57:17;18.90;1.00
2202;DHT22;1107;48.654;9.250;2022-08-03T02:59:45;18.90;1.00
2202;DHT22;1107;48.654;9.250;2022-08-03T03:02:14;19.00;99.90
2202;DHT22;1107;48.654;9.250;2022-08-03T03:04:42;19.10;1.00
2202;DHT22;1107;48.654;9.250;2022-08-03T03:07:12;19.10;1.00
2202;DHT22;1107;48.654;9.250;2022-08-03T03:09:39;19.10;1.00
2202;DHT22;1107;48.654;9.250;2022-08-03T03:12:09;19.10;1.00
2202;DHT22;1107;48.654;9.250;2022-08-03T03:14:37;19.10;1.00
2202;DHT22;1107;48.654;9.250;2022-08-03T03:17:06;19.00;99.90
2202;DHT22;1107;48.654;9.250;2022-08-03T03:19:36;19.00;99.90
2202;DHT22;1107;48.654;9.250;2022-08-03T03:22:05;19.00;1.00
2202;DHT22;1107;48.654;9.250;2022-08-03T03:24:35;19.00;1.00
2202;DHT22;1107;48.654;9.250;2022-08-03T03:27:03;19.00;1.00
2202;DHT22;1107;48.654;9.250;2022-08-03T03:29:31;19.10;1.00
2202;DHT22;1107;48.654;9.250;2022-08-03T03:32:00;19.10;1.00
2202;DHT22;1107;48.654;9.250;2022-08-03T03:34:28;19.10;99.90
2202;DHT22;1107;48.654;9.250;2022-08-03T03:36:56;19.10;1.00
2202;DHT22;1107;48.654;9.250;2022-08-03T03:39:23;19.10;99.90
2202;DHT22;1107;48.654;9.250;2022-08-03T03:41:51;19.10;1.00
2202;DHT22;1107;48.654;9.250;2022-08-03T03:44:18;19.10;1.00
2202;DHT22;1107;48.654;9.250;2022-08-03T03:46:45;19.10;1.00
2202;DHT22;1107;48.654;9.250;2022-08-03T03:49:13;19.00;1.00
2202;DHT22;1107;48.654;9.250;2022-08-03T03:51:40;18.90;1.00
2202;DHT22;1107;48.654;9.250;2022-08-03T03:54:07;18.80;1.00
2202;DHT22;1107;48.654;9.250;2022-08-03T03:56:34;18.70;99.90
2202;DHT22;1107;48.654;9.250;2022-08-03T03:59:02;18.70;1.00
2202;DHT22;1107;48.654;9.250;2022-08-03T04:01:30;18.70;1.00
2202;DHT22;1107;48.654;9.250;2022-08-03T04:03:57;18.80;99.90
2202;DHT22;1107;48.654;9.250;2022-08-03T04:06:46;18.80;99.90
2202;DHT22;1107;48.654;9.250;2022-08-03T04:09:30;18.80;1.00
2202;DHT22;1107;48.654;9.250;2022-08-03T04:12:17;18.70;99.90
2202;DHT22;1107;48.654;9.250;2022-08-03T04:14:46;18.60;99.90
2202;DHT22;1107;48.654;9.250;2022-08-03T04:17:15;18.50;1.00
2202;DHT22;1107;48.654;9.250;2022-08-03T04:19:45;18.50;1.00
2202;DHT22;1107;48.654;9.250;2022-08-03T04:22:17;18.50;99.90
2202;DHT22;1107;48.654;9.250;2022-08-03T04:24:48;18.50;1.00
2202;DHT22;1107;48.654;9.250;2022-08-03T04:27:20;18.50;1.00
2202;DHT22;1107;48.654;9.250;2022-08-03T04:29:52;18.50;1.00
2202;DHT22;1107;48.654;9.250;2022-08-03T04:32:21;18.40;1.00
2202;DHT22;1107;48.654;9.250;2022-08-03T04:34:50;18.50;99.90
2202;DHT22;1107;48.654;9.250;2022-08-03T04:37:23;18.50;1.00
2202;DHT22;1107;48.654;9.250;2022-08-03T04:39:50;18.50;1.00
2202;DHT22;1107;48.654;9.250;2022-08-03T04:42:20;18.60;1.00
2202;DHT22;1107;48.654;9.250;2022-08-03T04:44:50;18.60;99.90
2202;DHT22;1107;48.654;9.250;2022-08-03T04:47:19;18.60;99.90
2202;DHT22;1107;48.654;9.250;2022-08-03T04:49:47;18.60;99.90
2202;DHT22;1107;48.654;9.250;2022-08-03T04:52:15;18.70;99.90
2202;DHT22;1107;48.654;9.250;2022-08-03T04:54:43;18.80;1.00
2202;DHT22;1107;48.654;9.250;2022-08-03T04:57:11;18.90;1.00
2202;DHT22;1107;48.654;9.250;2022-08-03T04:59:38;19.00;1.00
2202;DHT22;1107;48.654;9.250;2022-08-03T05:02:06;19.20;99.90
2202;DHT22;1107;48.654;9.250;2022-08-03T05:04:33;19.30;1.00
2202;DHT22;1107;48.654;9.250;2022-08-03T05:07:02;19.40;23.80
2202;DHT22;1107;48.654;9.250;2022-08-03T05:09:29;19.60;1.00
2202;DHT22;1107;48.654;9.250;2022-08-03T05:11:56;19.70;99.90
2202;DHT22;1107;48.654;9.250;2022-08-03T05:14:23;19.80;39.00
2202;DHT22;1107;48.654;9.250;2022-08-03T05:16:50;19.80;1.00
2202;DHT22;1107;48.654;9.250;2022-08-03T05:19:18;19.90;1.00
2202;DHT22;1107;48.654;9.250;2022-08-03T05:21:46;20.10;1.00
2202;DHT22;1107;48.654;9.250;2022-08-03T05:24:13;20.30;99.90
2202;DHT22;1107;48.654;9.250;2022-08-03T05:26:39;20.40;1.00
2202;DHT22;1107;48.654;9.250;2022-08-03T05:29:06;20.50;1.00
2202;DHT22;1107;48.654;9.250;2022-08-03T05:31:34;20.60;1.00
2202;DHT22;1107;48.654;9.250;2022-08-03T05:34:01;20.60;1.00
2202;DHT22;1107;48.654;9.250;2022-08-03T05:36:29;20.80;1.00
2202;DHT22;1107;48.654;9.250;2022-08-03T05:38:56;20.90;1.00
2202;DHT22;1107;48.654;9.250;2022-08-03T05:41:23;21.00;99.90
2202;DHT22;1107;48.654;9.250;2022-08-03T05:43:51;20.90;99.90
2202;DHT22;1107;48.654;9.250;2022-08-03T05:46:18;21.10;99.90
2202;DHT22;1107;48.654;9.250;2022-08-03T05:48:46;21.20;99.90
2202;DHT22;1107;48.654;9.250;2022-08-03T05:51:13;21.20;99.90
2202;DHT22;1107;48.654;9.250;2022-08-03T05:53:42;21.30;99.90
2202;DHT22;1107;48.654;9.250;2022-08-03T05:56:09;21.20;99.90
2202;DHT22;1107;48.654;9.250;2022-08-03T05:58:37;21.20;99.90
2202;DHT22;1107;48.654;9.250;2022-08-03T06:01:04;21.40;99.90
2202;DHT22;1107;48.654;9.250;2022-08-03T06:03:31;21.40;99.90
2202;DHT22;1107;48.654;9.250;2022-08-03T06:05:58;21.40;99.90
2202;DHT22;1107;48.654;9.250;2022-08-03T06:08:25;21.50;99.90
2202;DHT22;1107;48.654;9.250;2022-08-03T06:10:53;21.60;99.90
2202;DHT22;1107;48.654;9.250;2022-08-03T06:13:20;21.80;99.90
2202;DHT22;1107;48.654;9.250;2022-08-03T06:15:47;22.00;99.90
2202;DHT22;1107;48.654;9.250;2022-08-03T06:18:14;22.30;24.90
2202;DHT22;1107;48.654;9.250;2022-08-03T06:20:41;22.60;26.20
2202;DHT22;1107;48.654;9.250;2022-08-03T06:23:08;22.70;1.00
2202;DHT22;1107;48.654;9.250;2022-08-03T06:25:35;23.20;1.00
2202;DHT22;1107;48.654;9.250;2022-08-03T06:28:04;23.40;1.00
2202;DHT22;1107;48.654;9.250;2022-08-03T06:30:31;23.30;1.00
2202;DHT22;1107;48.654;9.250;2022-08-03T06:32:58;23.30;1.00
2202;DHT22;1107;48.654;9.250;2022-08-03T06:35:25;23.50;1.00
2202;DHT22;1107;48.654;9.250;2022-08-03T06:37:53;23.70;1.00
2202;DHT22;1107;48.654;9.250;2022-08-03T06:40:21;24.00;1.00
2202;DHT22;1107;48.654;9.250;2022-08-03T06:42:53;24.30;1.00
2202;DHT22;1107;48.654;9.250;2022-08-03T06:45:22;24.30;1.00
2202;DHT22;1107;48.654;9.250;2022-08-03T06:47:59;24.20;1.00
2202;DHT22;1107;48.654;9.250;2022-08-03T06:50:26;24.30;1.00
2202;DHT22;1107;48.654;9.250;2022-08-03T06:52:53;24.30;1.00
2202;DHT22;1107;48.654;9.250;2022-08-03T06:55:20;24.60;1.00
2202;DHT22;1107;48.654;9.250;2022-08-03T06:57:47;24.80;1.00
2202;DHT22;1107;48.654;9.250;2022-08-03T07:00:15;25.30;1.00
2202;DHT22;1107;48.654;9.250;2022-08-03T07:02:43;25.70;99.90
2202;DHT22;1107;48.654;9.250;2022-08-03T07:05:11;26.00;99.90
2202;DHT22;1107;48.654;9.250;2022-08-03T07:07:38;25.90;99.90
2202;DHT22;1107;48.654;9.250;2022-08-03T07:10:06;26.20;99.90
2202;DHT22;1107;48.654;9.250;2022-08-03T07:12:34;26.30;99.90
2202;DHT22;1107;48.654;9.250;2022-08-03T07:15:01;26.60;99.90
2202;DHT22;1107;48.654;9.250;2022-08-03T07:17:30;27.20;99.90
2202;DHT22;1107;48.654;9.250;2022-08-03T07:19:59;27.50;99.90
2202;DHT22;1107;48.654;9.250;2022-08-03T07:22:27;27.60;99.90
2202;DHT22;1107;48.654;9.250;2022-08-03T07:24:54;27.80;99.90
2202;DHT22;1107;48.654;9.250;2022-08-03T07:27:21;28.00;99.90
2202;DHT22;1107;48.654;9.250;2022-08-03T07:29:48;28.20;99.90
2202;DHT22;1107;48.654;9.250;2022-08-03T07:32:15;27.90;99.90
2202;DHT22;1107;48.654;9.250;2022-08-03T07:34:42;28.10;99.90
2202;DHT22;1107;48.654;9.250;2022-08-03T07:37:10;28.50;99.90
2202;DHT22;1107;48.654;9.250;2022-08-03T07:39:37;28.80;99.90
2202;DHT22;1107;48.654;9.250;2022-08-03T07:42:04;28.60;99.90
2202;DHT22;1107;48.654;9.250;2022-08-03T07:44:31;28.70;99.90
2202;DHT22;1107;48.654;9.250;2022-08-03T07:46:58;28.80;99.90
2202;DHT22;1107;48.654;9.250;2022-08-03T07:49:25;29.40;99.90
2202;DHT22;1107;48.654;9.250;2022-08-03T07:51:52;29.50;99.90
2202;DHT22;1107;48.654;9.250;2022-08-03T07:54:34;30.00;99.90
2202;DHT22;1107;48.654;9.250;2022-08-03T07:57:01;30.00;99.90
2202;DHT22;1107;48.654;9.250;2022-08-03T07:59:28;30.40;99.90
2202;DHT22;1107;48.654;9.250;2022-08-03T08:01:56;30.90;99.90
2202;DHT22;1107;48.654;9.250;2022-08-03T08:04:23;31.40;99.90
2202;DHT22;1107;48.654;9.250;2022-08-03T08:06:50;31.80;99.90
2202;DHT22;1107;48.654;9.250;2022-08-03T08:09:17;32.20;99.90
2202;DHT22;1107;48.654;9.250;2022-08-03T08:11:45;32.60;99.90
2202;DHT22;1107;48.654;9.250;2022-08-03T08:14:12;32.80;99.90
2202;DHT22;1107;48.654;9.250;2022-08-03T08:16:39;32.90;99.90
2202;DHT22;1107;48.654;9.250;2022-08-03T08:19:06;33.30;99.90
2202;DHT22;1107;48.654;9.250;2022-08-03T08:21:33;33.60;98.60
2202;DHT22;1107;48.654;9.250;2022-08-03T08:24:00;33.70;93.80
2202;DHT22;1107;48.654;9.250;2022-08-03T08:26:27;33.70;90.60
2202;DHT22;1107;48.654;9.250;2022-08-03T08:28:56;33.40;65.20
2202;DHT22;1107;48.654;9.250;2022-08-03T08:31:23;33.50;58.40
2202;DHT22;1107;48.654;9.250;2022-08-03T08:33:50;33.80;56.70
2202;DHT22;1107;48.654;9.250;2022-08-03T08:36:17;34.20;53.50
2202;DHT22;1107;48.654;9.250;2022-08-03T08:38:44;34.30;44.60
2202;DHT22;1107;48.654;9.250;2022-08-03T08:41:12;34.40;42.90
2202;DHT22;1107;48.654;9.250;2022-08-03T08:43:40;34.60;36.30
2202;DHT22;1107;48.654;9.250;2022-08-03T08:46:11;34.70;31.20
2202;DHT22;1107;48.654;9.250;2022-08-03T08:48:40;35.00;33.80
2202;DHT22;1107;48.654;9.250;2022-08-03T08:51:11;35.30;31.30
2202;DHT22;1107;48.654;9.250;2022-08-03T08:53:40;35.40;28.30
2202;DHT22;1107;48.654;9.250;2022-08-03T08:56:13;35.70;25.10
2202;DHT22;1107;48.654;9.250;2022-08-03T08:58:43;35.90;24.40
2202;DHT22;1107;48.654;9.250;2022-08-03T09:01:13;36.00;36.90
2202;DHT22;1107;48.654;9.250;2022-08-03T09:03:40;36.10;17.80
2202;DHT22;1107;48.654;9.250;2022-08-03T09:06:07;36.60;18.00
2202;DHT22;1107;48.654;9.250;2022-08-03T09:08:34;36.90;14.80
2202;DHT22;1107;48.654;9.250;2022-08-03T09:11:01;37.10;10.20
2202;DHT22;1107;48.654;9.250;2022-08-03T09:13:28;37.10;7.10
2202;DHT22;1107;48.654;9.250;2022-08-03T09:16:14;37.10;4.80
2202;DHT22;1107;48.654;9.250;2022-08-03T09:18:42;36.90;3.00
2202;DHT22;1107;48.654;9.250;2022-08-03T09:21:14;37.20;4.50
2202;DHT22;1107;48.654;9.250;2022-08-03T09:23:45;37.30;2.00
2202;DHT22;1107;48.654;9.250;2022-08-03T09:26:18;37.50;1.00
2202;DHT22;1107;48.654;9.250;2022-08-03T09:28:45;37.90;1.00
2202;DHT22;1107;48.654;9.250;2022-08-03T09:31:14;38.20;1.00
2202;DHT22;1107;48.654;9.250;2022-08-03T09:33:46;38.20;1.00
2202;DHT22;1107;48.654;9.250;2022-08-03T09:36:33;38.20;1.00
2202;DHT22;1107;48.654;9.250;2022-08-03T09:39:01;38.10;1.00
2202;DHT22;1107;48.654;9.250;2022-08-03T09:41:30;38.10;1.00
2202;DHT22;1107;48.654;9.250;2022-08-03T09:43:57;38.30;1.00
2202;DHT22;1107;48.654;9.250;2022-08-03T09:46:26;38.40;1.00
2202;DHT22;1107;48.654;9.250;2022-08-03T09:49:08;38.70;1.00
2202;DHT22;1107;48.654;9.250;2022-08-03T09:51:36;38.80;1.00
2202;DHT22;1107;48.654;9.250;2022-08-03T09:54:04;39.00;1.00
2202;DHT22;1107;48.654;9.250;2022-08-03T09:56:41;39.00;1.00
2202;DHT22;1107;48.654;9.250;2022-08-03T09:59:09;39.00;1.00
2202;DHT22;1107;48.654;9.250;2022-08-03T10:01:38;39.00;1.00
2202;DHT22;1107;48.654;9.250;2022-08-03T10:04:11;39.20;1.00
2202;DHT22;1107;48.654;9.250;2022-08-03T10:06:43;39.10;1.00
2202;DHT22;1107;48.654;9.250;2022-08-03T10:09:12;39.10;1.00
2202;DHT22;1107;48.654;9.250;2022-08-03T10:11:40;38.70;1.00
2202;DHT22;1107;48.654;9.250;2022-08-03T10:14:09;38.30;1.00
2202;DHT22;1107;48.654;9.250;2022-08-03T10:16:45;37.80;1.00
2202;DHT22;1107;48.654;9.250;2022-08-03T10:19:12;37.50;1.00
2202;DHT22;1107;48.654;9.250;2022-08-03T10:21:41;37.00;1.00
2202;DHT22;1107;48.654;9.250;2022-08-03T10:24:16;36.80;1.00
2202;DHT22;1107;48.654;9.250;2022-08-03T10:26:46;36.50;1.00
2202;DHT22;1107;48.654;9.250;2022-08-03T10:29:19;36.20;1.00
2202;DHT22;1107;48.654;9.250;2022-08-03T10:31:49;35.70;1.00
2202;DHT22;1107;48.654;9.250;2022-08-03T10:34:21;35.60;1.00
2202;DHT22;1107;48.654;9.250;2022-08-03T10:36:51;35.40;1.00
2202;DHT22;1107;48.654;9.250;2022-08-03T10:39:21;35.40;1.00
2202;DHT22;1107;48.654;9.250;2022-08-03T10:41:48;35.10;1.00
2202;DHT22;1107;48.654;9.250;2022-08-03T10:44:18;34.90;1.00
2202;DHT22;1107;48.654;9.250;2022-08-03T10:46:47;34.80;1.00
2202;DHT22;1107;48.654;9.250;2022-08-03T10:49:16;34.80;1.00
2202;DHT22;1107;48.654;9.250;2022-08-03T10:51:46;34.70;1.00
2202;DHT22;1107;48.654;9.250;2022-08-03T10:54:39;34.80;1.00
2202;DHT22;1107;48.654;9.250;2022-08-03T10:57:47;34.80;1.00
2202;DHT22;1107;48.654;9.250;2022-08-03T11:00:14;34.70;1.00
2202;DHT22;1107;48.654;9.250;2022-08-03T11:03:02;34.60;1.00
2202;DHT22;1107;48.654;9.250;2022-08-03T11:05:32;34.90;1.00
2202;DHT22;1107;48.654;9.250;2022-08-03T11:08:26;34.80;1.00
2202;DHT22;1107;48.654;9.250;2022-08-03T11:10:55;34.80;1.00
2202;DHT22;1107;48.654;9.250;2022-08-03T11:13:24;34.80;1.00
2202;DHT22;1107;48.654;9.250;2022-08-03T11:15:54;34.80;1.00
2202;DHT22;1107;48.654;9.250;2022-08-03T11:18:24;35.10;1.00
2202;DHT22;1107;48.654;9.250;2022-08-03T11:20:52;35.00;1.00
2202;DHT22;1107;48.654;9.250;2022-08-03T11:23:43;35.00;1.00
2202;DHT22;1107;48.654;9.250;2022-08-03T11:26:14;35.10;1.00
2202;DHT22;1107;48.654;9.250;2022-08-03T11:28:43;35.10;1.00
2202;DHT22;1107;48.654;9.250;2022-08-03T11:31:44;35.00;1.00
2202;DHT22;1107;48.654;9.250;2022-08-03T11:34:14;35.10;1.00
2202;DHT22;1107;48.654;9.250;2022-08-03T11:37:19;34.80;1.00
2202;DHT22;1107;48.654;9.250;2022-08-03T11:39:52;34.70;1.00
2202;DHT22;1107;48.654;9.250;2022-08-03T11:42:40;34.90;1.00
2202;DHT22;1107;48.654;9.250;2022-08-03T11:45:10;35.10;1.00
2202;DHT22;1107;48.654;9.250;2022-08-03T11:47:38;35.30;1.00
2202;DHT22;1107;48.654;9.250;2022-08-03T11:50:08;35.30;1.00
2202;DHT22;1107;48.654;9.250;2022-08-03T11:52:40;35.40;1.00
2202;DHT22;1107;48.654;9.250;2022-08-03T11:55:15;35.40;1.00
2202;DHT22;1107;48.654;9.250;2022-08-03T11:57:44;35.30;1.00
2202;DHT22;1107;48.654;9.250;2022-08-03T12:00:22;35.60;1.00
2202;DHT22;1107;48.654;9.250;2022-08-03T12:03:00;35.80;1.00
2202;DHT22;1107;48.654;9.250;2022-08-03T12:05:40;35.70;1.00
2202;DHT22;1107;48.654;9.250;2022-08-03T12:08:08;35.80;1.00
2202;DHT22;1107;48.654;9.250;2022-08-03T12:10:36;35.90;1.00
2202;DHT22;1107;48.654;9.250;2022-08-03T12:13:04;36.10;1.00
2202;DHT22;1107;48.654;9.250;2022-08-03T12:15:33;36.00;1.00
2202;DHT22;1107;48.654;9.250;2022-08-03T12:18:02;36.00;1.00
2202;DHT22;1107;48.654;9.250;2022-08-03T12:20:31;35.40;1.00
2202;DHT22;1107;48.654;9.250;2022-08-03T12:23:04;35.40;1.00
2202;DHT22;1107;48.654;9.250;2022-08-03T12:25:32;35.40;1.00
2202;DHT22;1107;48.654;9.250;2022-08-03T12:28:09;35.70;1.00
2202;DHT22;1107;48.654;9.250;2022-08-03T12:30:37;35.70;1.00
2202;DHT22;1107;48.654;9.250;2022-08-03T12:33:16;35.70;1.00
2202;DHT22;1107;48.654;9.250;2022-08-03T12:35:45;35.80;1.00
2202;DHT22;1107;48.654;9.250;2022-08-03T12:38:19;35.80;1.00
2202;DHT22;1107;48.654;9.250;2022-08-03T12:40:55;35.80;1.00
2202;DHT22;1107;48.654;9.250;2022-08-03T12:43:22;35.90;1.00
2202;DHT22;1107;48.654;9.250;2022-08-03T12:45:49;36.00;1.00
2202;DHT22;1107;48.654;9.250;2022-08-03T12:48:16;36.10;1.00
2202;DHT22;1107;48.654;9.250;2022-08-03T12:50:43;36.20;1.00
2202;DHT22;1107;48.654;9.250;2022-08-03T12:53:10;35.90;1.00
2202;DHT22;1107;48.654;9.250;2022-08-03T12:55:39;35.90;1.00
2202;DHT22;1107;48.654;9.250;2022-08-03T12:58:07;35.80;1.00
2202;DHT22;1107;48.654;9.250;2022-08-03T13:00:35;35.80;1.00
2202;DHT22;1107;48.654;9.250;2022-08-03T13:03:04;35.80;1.00
2202;DHT22;1107;48.654;9.250;2022-08-03T13:05:41;35.80;1.00
2202;DHT22;1107;48.654;9.250;2022-08-03T13:08:17;35.80;1.00
2202;DHT22;1107;48.654;9.250;2022-08-03T13:10:45;35.70;1.00
2202;DHT22;1107;48.654;9.250;2022-08-03T13:13:13;35.80;1.00
2202;DHT22;1107;48.654;9.250;2022-08-03T13:15:40;35.60;1.00
2202;DHT22;1107;48.654;9.250;2022-08-03T13:18:08;35.70;1.00
2202;DHT22;1107;48.654;9.250;2022-08-03T13:20:35;35.80;1.00
2202;DHT22;1107;48.654;9.250;2022-08-03T13:23:02;35.90;1.00
2202;DHT22;1107;48.654;9.250;2022-08-03T13:25:29;35.90;1.00
2202;DHT22;1107;48.654;9.250;2022-08-03T13:27:57;35.80;1.00
2202;DHT22;1107;48.654;9.250;2022-08-03T13:30:24;35.80;1.00
2202;DHT22;1107;48.654;9.250;2022-08-03T13:32:52;35.80;1.00
2202;DHT22;1107;48.654;9.250;2022-08-03T13:35:18;36.10;1.00
2202;DHT22;1107;48.654;9.250;2022-08-03T13:37:45;35.90;1.00
2202;DHT22;1107;48.654;9.250;2022-08-03T13:40:12;35.60;1.00
2202;DHT22;1107;48.654;9.250;2022-08-03T13:42:39;35.40;1.00
2202;DHT22;1107;48.654;9.250;2022-08-03T13:45:08;35.50;1.00
2202;DHT22;1107;48.654;9.250;2022-08-03T13:47:36;35.60;1.00
2202;DHT22;1107;48.654;9.250;2022-08-03T13:50:03;35.60;1.00
2202;DHT22;1107;48.654;9.250;2022-08-03T13:52:31;35.60;1.00
2202;DHT22;1107;48.654;9.250;2022-08-03T13:54:59;35.50;1.00
2202;DHT22;1107;48.654;9.250;2022-08-03T13:57:26;35.50;1.00
2202;DHT22;1107;48.654;9.250;2022-08-03T13:59:53;35.60;1.00
2202;DHT22;1107;48.654;9.250;2022-08-03T14:02:21;35.80;1.00
2202;DHT22;1107;48.654;9.250;2022-08-03T14:04:48;35.70;1.00
2202;DHT22;1107;48.654;9.250;2022-08-03T14:07:15;35.50;1.00
2202;DHT22;1107;48.654;9.250;2022-08-03T14:09:42;35.40;1.00
2202;DHT22;1107;48.654;9.250;2022-08-03T14:12:09;35.40;1.00
2202;DHT22;1107;48.654;9.250;2022-08-03T14:14:36;35.30;1.00
2202;DHT22;1107;48.654;9.250;2022-08-03T14:17:03;35.50;1.00
2202;DHT22;1107;48.654;9.250;2022-08-03T14:19:32;35.50;1.00
2202;DHT22;1107;48.654;9.250;2022-08-03T14:21:59;35.30;1.00
2202;DHT22;1107;48.654;9.250;2022-08-03T14:24:26;35.00;1.00
2202;DHT22;1107;48.654;9.250;2022-08-03T14:26:53;35.00;1.00
2202;DHT22;1107;48.654;9.250;2022-08-03T14:29:20;34.90;1.00
2202;DHT22;1107;48.654;9.250;2022-08-03T14:31:47;34.90;1.00
2202;DHT22;1107;48.654;9.250;2022-08-03T14:34:14;35.10;1.00
2202;DHT22;1107;48.654;9.250;2022-08-03T14:36:43;35.20;1.00
2202;DHT22;1107;48.654;9.250;2022-08-03T14:39:12;35.10;1.00
2202;DHT22;1107;48.654;9.250;2022-08-03T14:41:39;34.90;1.00
2202;DHT22;1107;48.654;9.250;2022-08-03T14:44:06;34.70;1.00
2202;DHT22;1107;48.654;9.250;2022-08-03T14:46:33;34.60;1.00
2202;DHT22;1107;48.654;9.250;2022-08-03T14:49:00;34.50;1.00
2202;DHT22;1107;48.654;9.250;2022-08-03T14:51:27;34.60;1.00
2202;DHT22;1107;48.654;9.250;2022-08-03T14:53:56;34.50;1.00
2202;DHT22;1107;48.654;9.250;2022-08-03T14:56:23;34.50;1.00
2202;DHT22;1107;48.654;9.250;2022-08-03T14:58:50;34.40;1.00
2202;DHT22;1107;48.654;9.250;2022-08-03T15:01:17;34.30;1.00
2202;DHT22;1107;48.654;9.250;2022-08-03T15:03:43;34.20;1.00
2202;DHT22;1107;48.654;9.250;2022-08-03T15:06:12;34.10;1.00
2202;DHT22;1107;48.654;9.250;2022-08-03T15:08:39;34.10;1.00
2202;DHT22;1107;48.654;9.250;2022-08-03T15:11:08;34.10;1.00
2202;DHT22;1107;48.654;9.250;2022-08-03T15:13:35;34.10;1.00
2202;DHT22;1107;48.654;9.250;2022-08-03T15:16:02;34.00;1.00
2202;DHT22;1107;48.654;9.250;2022-08-03T15:18:29;33.90;1.00
2202;DHT22;1107;48.654;9.250;2022-08-03T15:20:56;33.80;1.00
2202;DHT22;1107;48.654;9.250;2022-08-03T15:23:23;33.70;1.00
2202;DHT22;1107;48.654;9.250;2022-08-03T15:25:51;33.70;1.00
2202;DHT22;1107;48.654;9.250;2022-08-03T15:28:19;33.50;1.00
2202;DHT22;1107;48.654;9.250;2022-08-03T15:30:46;33.30;1.00
2202;DHT22;1107;48.654;9.250;2022-08-03T15:33:13;33.20;1.00
2202;DHT22;1107;48.654;9.250;2022-08-03T15:35:40;33.00;1.00
2202;DHT22;1107;48.654;9.250;2022-08-03T15:38:07;33.00;1.00
2202;DHT22;1107;48.654;9.250;2022-08-03T15:40:34;33.00;1.00
2202;DHT22;1107;48.654;9.250;2022-08-03T15:43:01;33.00;1.00
2202;DHT22;1107;48.654;9.250;2022-08-03T15:45:29;33.00;1.00
2202;DHT22;1107;48.654;9.250;2022-08-03T15:47:56;33.00;1.00
2202;DHT22;1107;48.654;9.250;2022-08-03T15:50:23;32.90;1.00
2202;DHT22;1107;48.654;9.250;2022-08-03T15:52:50;32.90;1.00
2202;DHT22;1107;48.654;9.250;2022-08-03T15:55:17;32.80;1.00
2202;DHT22;1107;48.654;9.250;2022-08-03T15:57:44;32.70;1.00
2202;DHT22;1107;48.654;9.250;2022-08-03T16:00:12;32.50;1.00
2202;DHT22;1107;48.654;9.250;2022-08-03T16:02:41;32.50;1.00
2202;DHT22;1107;48.654;9.250;2022-08-03T16:05:08;32.40;1.00
2202;DHT22;1107;48.654;9.250;2022-08-03T16:07:35;32.30;1.00
2202;DHT22;1107;48.654;9.250;2022-08-03T16:10:10;32.30;1.00
2202;DHT22;1107;48.654;9.250;2022-08-03T16:12:37;32.30;1.00
2202;DHT22;1107;48.654;9.250;2022-08-03T16:15:06;32.30;1.00
2202;DHT22;1107;48.654;9.250;2022-08-03T16:17:33;32.20;1.00
2202;DHT22;1107;48.654;9.250;2022-08-03T16:20:02;32.20;1.00
2202;DHT22;1107;48.654;9.250;2022-08-03T16:22:29;32.10;1.00
2202;DHT22;1107;48.654;9.250;2022-08-03T16:24:56;32.10;1.00
2202;DHT22;1107;48.654;9.250;2022-08-03T16:27:23;32.00;1.00